createdAt,value
2023-04-18T00:01:33.390Z,3.83
2023-04-18T00:04:00.080Z,3.78
2023-04-18T00:06:26.957Z,3.72
2023-04-18T00:08:53.592Z,3.75
2023-04-18T00:11:20.770Z,3.40
2023-04-18T00:13:47.579Z,3.53
2023-04-18T00:16:14.526Z,3.42
2023-04-18T00:18:41.230Z,3.80
2023-04-18T00:21:08.854Z,3.67
2023-04-18T00:23:35.880Z,3.65
2023-04-18T00:26:02.799Z,3.60
2023-04-18T00:28:29.538Z,3.47
2023-04-18T00:30:56.243Z,3.53
2023-04-18T00:33:23.250Z,3.70
2023-04-18T00:35:51.904Z,3.75
2023-04-18T00:38:18.597Z,3.88
2023-04-18T00:40:47.832Z,3.45
2023-04-18T00:43:14.861Z,3.53
2023-04-18T00:45:41.727Z,3.70
2023-04-18T00:48:09.278Z,3.50
2023-04-18T00:50:37.286Z,3.60
2023-04-18T00:53:04.076Z,3.30
2023-04-18T00:55:30.768Z,3.40
2023-04-18T00:57:57.426Z,3.40
2023-04-18T01:00:24.590Z,3.45
2023-04-18T01:02:55.708Z,3.40
2023-04-18T01:05:23.559Z,3.30
2023-04-18T01:07:50.551Z,3.40
2023-04-18T01:10:17.223Z,3.35
2023-04-18T01:12:43.853Z,3.50
2023-04-18T01:15:11.563Z,3.25
2023-04-18T01:17:38.545Z,3.60
2023-04-18T01:20:06.401Z,3.40
2023-04-18T01:22:33.314Z,3.10
2023-04-18T01:25:00.072Z,3.22
2023-04-18T01:27:26.776Z,3.20
2023-04-18T01:29:53.685Z,3.25
2023-04-18T01:32:20.762Z,3.10
2023-04-18T01:34:47.650Z,3.17
2023-04-18T01:37:14.551Z,3.20
2023-04-18T01:39:41.307Z,3.13
2023-04-18T01:42:07.994Z,3.05
2023-04-18T01:44:34.685Z,2.97
2023-04-18T01:47:01.566Z,3.22
2023-04-18T01:49:28.244Z,3.20
2023-04-18T01:51:54.949Z,2.80
2023-04-18T01:54:21.630Z,2.70
2023-04-18T01:56:48.336Z,3.00
2023-04-18T01:59:15.139Z,2.80
2023-04-18T02:01:42.848Z,2.72
2023-04-18T02:04:09.622Z,2.80
2023-04-18T02:06:36.475Z,2.70
2023-04-18T02:09:03.148Z,2.97
2023-04-18T02:11:30.088Z,2.70
2023-04-18T02:13:59.887Z,2.90
2023-04-18T02:16:27.025Z,2.60
2023-04-18T02:18:53.775Z,2.70
2023-04-18T02:21:21.931Z,2.42
2023-04-18T02:23:48.918Z,2.70
2023-04-18T02:26:15.570Z,2.35
2023-04-18T02:28:42.248Z,2.63
2023-04-18T02:31:14.910Z,2.60
2023-04-18T02:33:43.162Z,2.25
2023-04-18T02:36:10.406Z,2.50
2023-04-18T02:38:37.134Z,2.58
2023-04-18T02:41:04.230Z,2.40
2023-04-18T02:43:30.872Z,2.42
2023-04-18T02:45:58.185Z,2.70
2023-04-18T02:48:24.990Z,2.60
2023-04-18T02:50:51.752Z,2.65
2023-04-18T02:53:18.446Z,2.50
2023-04-18T02:55:54.145Z,2.60
2023-04-18T02:58:25.521Z,2.58
2023-04-18T03:01:24.737Z,2.40
2023-04-18T03:04:05.993Z,2.60
2023-04-18T03:06:43.059Z,2.40
2023-04-18T03:09:09.868Z,2.13
2023-04-18T03:11:41.794Z,2.17
2023-04-18T03:14:08.976Z,2.30
2023-04-18T03:16:44.262Z,2.30
2023-04-18T03:19:14.722Z,2.47
2023-04-18T03:21:41.333Z,2.30
2023-04-18T03:24:09.693Z,2.03
2023-04-18T03:26:39.532Z,2.55
2023-04-18T03:29:06.579Z,2.33
2023-04-18T03:31:33.547Z,2.40
2023-04-18T03:34:00.830Z,2.05
2023-04-18T03:36:28.733Z,2.38
2023-04-18T03:38:55.757Z,2.30
2023-04-18T03:41:23.912Z,2.28
2023-04-18T03:43:50.772Z,2.15
2023-04-18T03:46:17.542Z,2.10
2023-04-18T03:48:45.077Z,2.13
2023-04-18T03:51:12.052Z,1.85
2023-04-18T03:53:39.181Z,2.13
2023-04-18T03:56:06.094Z,2.20
2023-04-18T03:58:49.251Z,2.10
2023-04-18T04:01:16.715Z,2.17
2023-04-18T04:03:43.707Z,1.90
2023-04-18T04:06:10.433Z,1.80
2023-04-18T04:08:37.112Z,2.10
2023-04-18T04:11:03.807Z,1.88
2023-04-18T04:13:30.592Z,1.88
2023-04-18T04:15:57.766Z,2.00
2023-04-18T04:18:30.910Z,1.77
2023-04-18T04:23:52.172Z,1.92
2023-04-18T04:26:30.702Z,1.90
2023-04-18T04:29:16.385Z,1.80
2023-04-18T04:31:44.805Z,1.90
2023-04-18T04:34:12.204Z,1.83
2023-04-18T04:36:41.218Z,1.83
2023-04-18T04:39:09.251Z,2.10
2023-04-18T04:41:53.868Z,2.05
2023-04-18T04:44:25.916Z,2.03
2023-04-18T04:46:54.542Z,1.80
2023-04-18T04:49:25.295Z,1.77
2023-04-18T04:51:51.990Z,1.90
2023-04-18T04:54:20.078Z,2.20
2023-04-18T04:56:46.767Z,1.90
2023-04-18T04:59:14.113Z,2.08
2023-04-18T05:01:43.809Z,1.90
2023-04-18T05:04:10.760Z,1.70
2023-04-18T05:06:40.053Z,1.83
2023-04-18T05:09:06.935Z,1.83
2023-04-18T05:11:33.598Z,1.98
2023-04-18T05:14:00.239Z,1.98
2023-04-18T05:16:26.956Z,1.65
2023-04-18T05:18:53.665Z,1.70
2023-04-18T05:21:20.304Z,2.03
2023-04-18T05:23:46.938Z,1.95
2023-04-18T05:26:13.608Z,1.98
2023-04-18T05:28:41.436Z,1.80
2023-04-18T05:31:08.140Z,1.80
2023-04-18T05:33:34.774Z,1.95
2023-04-18T05:36:01.557Z,1.90
2023-04-18T05:38:28.251Z,1.90
2023-04-18T05:40:55.921Z,1.90
2023-04-18T05:43:23.298Z,1.95
2023-04-18T05:45:52.343Z,1.80
2023-04-18T05:48:19.447Z,2.13
2023-04-18T05:50:46.238Z,2.00
2023-04-18T05:53:13.058Z,1.85
2023-04-18T05:55:40.963Z,2.15
2023-04-18T05:58:07.846Z,2.03
2023-04-18T06:00:34.824Z,2.10
2023-04-18T06:03:01.637Z,2.90
2023-04-18T06:05:28.947Z,3.03
2023-04-18T06:07:55.879Z,2.70
2023-04-18T06:10:22.667Z,3.05
2023-04-18T06:12:49.440Z,2.80
2023-04-18T06:15:16.142Z,3.20
2023-04-18T06:17:42.837Z,2.70
2023-04-18T06:20:10.018Z,2.30
2023-04-18T06:22:36.823Z,2.60
2023-04-18T06:25:03.984Z,2.58
2023-04-18T06:27:31.797Z,2.60
2023-04-18T06:29:58.659Z,2.58
2023-04-18T06:32:25.495Z,2.40
2023-04-18T06:34:53.122Z,2.30
2023-04-18T06:37:20.214Z,2.40
2023-04-18T06:39:46.904Z,2.60
2023-04-18T06:42:13.798Z,2.58
2023-04-18T06:44:44.584Z,2.83
2023-04-18T06:47:11.346Z,2.60
2023-04-18T06:49:37.987Z,3.00
2023-04-18T06:52:04.604Z,2.28
2023-04-18T06:54:31.232Z,2.65
2023-04-18T06:56:57.916Z,2.45
2023-04-18T06:59:24.590Z,2.88
2023-04-18T07:01:51.245Z,2.25
2023-04-18T07:04:18.156Z,2.58
2023-04-18T07:06:45.267Z,2.53
2023-04-18T07:09:11.902Z,2.47
2023-04-18T07:11:40.732Z,2.40
2023-04-18T07:14:07.517Z,2.50
2023-04-18T07:16:34.588Z,2.78
2023-04-18T07:19:01.440Z,2.50
2023-04-18T07:21:28.377Z,2.63
2023-04-18T07:23:55.360Z,2.20
2023-04-18T07:26:22.169Z,2.40
2023-04-18T07:28:49.227Z,2.30
2023-04-18T07:31:16.545Z,2.45
2023-04-18T07:33:43.624Z,2.40
2023-04-18T07:36:10.435Z,2.58
2023-04-18T07:38:37.271Z,2.30
2023-04-18T07:41:04.085Z,2.35
2023-04-18T07:43:30.854Z,2.47
2023-04-18T07:45:57.542Z,2.42
2023-04-18T07:48:25.393Z,2.47
2023-04-18T07:50:52.231Z,2.58
2023-04-18T07:53:19.000Z,2.80
2023-04-18T07:55:46.643Z,2.70
2023-04-18T07:58:13.578Z,2.70
2023-04-18T08:00:42.358Z,2.60
2023-04-18T08:03:12.718Z,2.53
2023-04-18T08:05:40.959Z,2.58
2023-04-18T08:08:09.099Z,2.47
2023-04-18T08:10:35.952Z,2.40
2023-04-18T08:13:03.042Z,2.67
2023-04-18T08:15:32.221Z,2.38
2023-04-18T08:17:59.781Z,2.60
2023-04-18T08:20:26.691Z,2.90
2023-04-18T08:23:06.020Z,2.67
2023-04-18T08:25:36.445Z,2.95
2023-04-18T08:28:04.065Z,2.70
2023-04-18T08:30:31.326Z,2.58
2023-04-18T08:32:59.589Z,2.50
2023-04-18T08:35:26.371Z,2.33
2023-04-18T08:37:53.117Z,2.70
2023-04-18T08:40:20.707Z,2.80
2023-04-18T08:42:47.382Z,2.85
2023-04-18T08:45:14.626Z,2.80
2023-04-18T08:47:42.182Z,2.60
2023-04-18T08:50:10.080Z,2.45
2023-04-18T08:52:37.799Z,2.55
2023-04-18T08:55:05.368Z,2.60
2023-04-18T08:57:33.263Z,2.30
2023-04-18T09:00:08.193Z,2.63
2023-04-18T09:05:19.594Z,2.70
2023-04-18T09:07:47.380Z,2.80
2023-04-18T09:10:15.476Z,2.60
2023-04-18T09:12:56.941Z,2.45
2023-04-18T09:15:27.006Z,2.60
2023-04-18T09:17:56.364Z,2.45
2023-04-18T09:20:35.495Z,2.80
2023-04-18T09:23:10.517Z,2.60
2023-04-18T09:25:42.012Z,2.80
2023-04-18T09:28:30.266Z,2.30
2023-04-18T09:30:58.867Z,2.83
2023-04-18T09:33:32.491Z,2.40
2023-04-18T09:36:24.380Z,2.30
2023-04-18T09:38:55.390Z,2.40
2023-04-18T09:41:23.383Z,2.20
2023-04-18T09:43:50.230Z,2.42
2023-04-18T09:46:21.752Z,2.60
2023-04-18T09:48:48.497Z,2.47
2023-04-18T09:51:16.519Z,2.15
2023-04-18T09:53:51.081Z,2.28
2023-04-18T09:56:25.967Z,2.33
2023-04-18T10:01:26.896Z,2.70
2023-04-18T10:03:54.080Z,2.55
2023-04-18T10:06:21.018Z,2.38
2023-04-18T10:08:48.623Z,2.78
2023-04-18T10:11:15.521Z,2.90
2023-04-18T10:13:44.696Z,2.42
2023-04-18T10:16:11.582Z,2.42
2023-04-18T10:18:38.534Z,2.58
2023-04-18T10:21:05.516Z,2.58
2023-04-18T10:23:32.209Z,2.65
2023-04-18T10:25:59.514Z,2.35
2023-04-18T10:28:27.605Z,2.35
2023-04-18T10:30:56.658Z,2.50
2023-04-18T10:33:31.005Z,2.70
2023-04-18T10:36:14.855Z,2.67
2023-04-18T10:38:47.078Z,2.50
2023-04-18T10:41:26.268Z,2.65
2023-04-18T10:44:14.629Z,2.50
2023-04-18T10:47:07.453Z,2.70
2023-04-18T10:49:36.439Z,2.45
2023-04-18T10:52:04.448Z,2.42
2023-04-18T10:54:57.713Z,2.33
2023-04-18T10:57:26.476Z,2.38
2023-04-18T10:59:54.747Z,2.60
2023-04-18T11:02:30.189Z,2.50
2023-04-18T11:05:01.654Z,2.35
2023-04-18T11:07:48.996Z,2.30
2023-04-18T11:10:23.922Z,2.28
2023-04-18T11:12:51.282Z,2.30
2023-04-18T11:15:23.159Z,2.40
2023-04-18T11:18:03.991Z,2.50
2023-04-18T11:20:38.599Z,2.30
2023-04-18T11:23:23.880Z,2.45
2023-04-18T11:28:20.008Z,2.22
2023-04-18T11:30:47.060Z,2.40
2023-04-18T11:33:14.421Z,2.40
2023-04-18T11:35:43.509Z,2.15
2023-04-18T11:38:13.057Z,2.40
2023-04-18T11:40:40.065Z,2.30
2023-04-18T11:43:07.496Z,2.30
2023-04-18T11:45:34.190Z,2.90
2023-04-18T11:48:01.352Z,2.58
2023-04-18T11:50:28.106Z,2.60
2023-04-18T11:52:56.536Z,2.50
2023-04-18T11:55:25.048Z,2.30
2023-04-18T11:57:52.561Z,2.63
2023-04-18T12:00:29.509Z,2.50
2023-04-18T12:02:56.527Z,2.40
2023-04-18T12:05:28.241Z,2.65
2023-04-18T12:07:55.529Z,2.65
2023-04-18T12:10:22.087Z,2.20
2023-04-18T12:12:53.431Z,2.60
2023-04-18T12:15:21.841Z,2.40
2023-04-18T12:17:48.676Z,2.65
2023-04-18T12:20:16.132Z,2.67
2023-04-18T12:22:49.993Z,2.50
2023-04-18T12:25:27.007Z,2.47
2023-04-18T12:27:54.225Z,2.50
2023-04-18T12:30:22.737Z,2.60
2023-04-18T12:32:52.580Z,2.50
2023-04-18T12:35:20.396Z,2.60
2023-04-18T12:37:51.477Z,2.58
2023-04-18T12:40:19.162Z,2.40
2023-04-18T12:42:46.940Z,3.08
2023-04-18T12:45:14.661Z,2.30
2023-04-18T12:47:42.862Z,2.50
2023-04-18T12:50:11.602Z,2.30
2023-04-18T12:52:40.061Z,2.50
2023-04-18T12:55:07.676Z,2.45
2023-04-18T12:57:34.496Z,2.40
2023-04-18T13:00:01.153Z,2.50
2023-04-18T13:02:29.279Z,2.50
2023-04-18T13:04:57.388Z,2.60
2023-04-18T13:07:24.829Z,2.50
2023-04-18T13:09:51.479Z,2.40
2023-04-18T13:12:18.089Z,2.53
2023-04-18T13:14:44.860Z,2.40
2023-04-18T13:17:11.499Z,2.25
2023-04-18T13:19:38.112Z,2.53
2023-04-18T13:22:04.915Z,2.20
2023-04-18T13:24:31.608Z,2.28
2023-04-18T13:26:58.898Z,2.30
2023-04-18T13:29:25.736Z,2.60
2023-04-18T13:31:52.507Z,2.30
2023-04-18T13:34:19.182Z,2.50
2023-04-18T13:36:45.801Z,2.60
2023-04-18T13:39:13.189Z,2.33
2023-04-18T13:41:40.077Z,2.28
2023-04-18T13:44:08.210Z,2.50
2023-04-18T13:46:35.028Z,2.40
2023-04-18T13:49:01.732Z,2.45
2023-04-18T13:51:28.371Z,2.47
2023-04-18T13:53:55.558Z,2.63
2023-04-18T13:56:22.248Z,2.50
2023-04-18T13:58:48.930Z,2.60
2023-04-18T14:01:16.606Z,2.38
2023-04-18T14:03:43.985Z,2.40
2023-04-18T14:06:11.020Z,2.40
2023-04-18T14:08:37.691Z,2.53
2023-04-18T14:11:04.526Z,2.67
2023-04-18T14:13:31.176Z,2.60
2023-04-18T14:15:57.930Z,2.95
2023-04-18T14:18:24.704Z,2.50
2023-04-18T14:20:51.649Z,2.70
2023-04-18T14:23:18.349Z,2.88
2023-04-18T14:25:45.054Z,2.95
2023-04-18T14:28:12.105Z,2.80
2023-04-18T14:30:39.885Z,2.60
2023-04-18T14:33:07.454Z,2.92
2023-04-18T14:35:34.178Z,3.00
2023-04-18T14:38:00.858Z,2.78
2023-04-18T14:40:27.482Z,3.00
2023-04-18T14:42:54.215Z,2.72
2023-04-18T14:45:20.880Z,2.60
2023-04-18T14:47:47.759Z,2.67
2023-04-18T14:50:15.406Z,2.50
2023-04-18T14:52:42.379Z,2.50
2023-04-18T14:55:09.616Z,2.35
2023-04-18T14:57:37.074Z,2.35
2023-04-18T15:00:08.960Z,2.15
2023-04-18T15:02:35.980Z,2.50
2023-04-18T15:05:03.033Z,2.50
2023-04-18T15:07:30.391Z,2.30
2023-04-18T15:09:56.985Z,2.40
2023-04-18T15:12:23.607Z,2.40
2023-04-18T15:14:50.324Z,2.50
2023-04-18T15:17:17.084Z,2.40
2023-04-18T15:19:43.738Z,2.60
2023-04-18T15:22:10.838Z,2.50
2023-04-18T15:24:37.550Z,2.67
2023-04-18T15:27:04.365Z,2.33
2023-04-18T15:29:30.969Z,2.67
2023-04-18T15:31:57.598Z,2.70
2023-04-18T15:34:24.351Z,2.60
2023-04-18T15:36:51.438Z,2.92
2023-04-18T15:39:21.620Z,2.88
2023-04-18T15:41:48.336Z,2.60
2023-04-18T15:44:15.088Z,2.60
2023-04-18T15:46:41.927Z,2.75
2023-04-18T15:49:08.775Z,2.78
2023-04-18T15:51:35.446Z,3.10
2023-04-18T15:54:02.144Z,3.00
2023-04-18T15:56:29.707Z,3.10
2023-04-18T15:58:58.670Z,2.90
2023-04-18T16:01:25.778Z,3.10
2023-04-18T16:03:52.729Z,3.25
2023-04-18T16:06:22.301Z,3.28
2023-04-18T16:08:49.861Z,3.25
2023-04-18T16:11:16.752Z,3.50
2023-04-18T16:13:43.373Z,3.80
2023-04-18T16:16:10.217Z,4.57
2023-04-18T16:18:36.827Z,4.15
2023-04-18T16:21:03.597Z,3.70
2023-04-18T16:23:31.875Z,3.70
2023-04-18T16:25:58.650Z,3.53
2023-04-18T16:28:25.316Z,3.40
2023-04-18T16:30:53.562Z,3.50
2023-04-18T16:33:25.852Z,3.70
2023-04-18T16:35:53.069Z,3.10
2023-04-18T16:38:23.428Z,3.63
2023-04-18T16:40:50.116Z,3.17
2023-04-18T16:43:16.800Z,3.20
2023-04-18T16:45:43.459Z,3.20
2023-04-18T16:48:10.268Z,3.30
2023-04-18T16:50:36.934Z,3.30
2023-04-18T16:53:03.732Z,3.05
2023-04-18T16:55:30.403Z,3.22
2023-04-18T16:57:57.018Z,3.17
2023-04-18T17:00:23.775Z,3.33
2023-04-18T17:02:50.903Z,3.30
2023-04-18T17:05:18.710Z,3.22
2023-04-18T17:07:46.037Z,3.40
2023-04-18T17:10:12.786Z,3.40
2023-04-18T17:12:39.447Z,3.30
2023-04-18T17:15:06.982Z,3.38
2023-04-18T17:17:34.796Z,3.45
2023-04-18T17:20:01.577Z,3.47
2023-04-18T17:22:29.326Z,3.20
2023-04-18T17:24:55.979Z,3.40
2023-04-18T17:27:22.736Z,3.15
2023-04-18T17:29:49.973Z,3.08
2023-04-18T17:32:16.645Z,3.05
2023-04-18T17:34:43.394Z,3.40
2023-04-18T17:37:11.598Z,3.38
2023-04-18T17:39:39.082Z,3.58
2023-04-18T17:42:05.755Z,3.45
2023-04-18T17:44:32.402Z,3.50
2023-04-18T17:46:59.937Z,3.58
2023-04-18T17:49:31.376Z,3.70
2023-04-18T17:51:58.104Z,3.42
2023-04-18T17:54:24.767Z,3.40
2023-04-18T17:56:51.712Z,3.40
2023-04-18T17:59:18.349Z,3.33
2023-04-18T18:01:44.997Z,3.38
2023-04-18T18:04:12.540Z,3.60
2023-04-18T18:06:39.570Z,3.78
2023-04-18T18:09:06.308Z,3.40
2023-04-18T18:11:32.892Z,3.45
2023-04-18T18:14:00.437Z,3.10
2023-04-18T18:16:27.173Z,3.30
2023-04-18T18:18:53.913Z,3.10
2023-04-18T18:21:20.550Z,3.25
2023-04-18T18:23:47.196Z,3.63
2023-04-18T18:26:13.898Z,3.30
2023-04-18T18:28:40.552Z,3.45
2023-04-18T18:31:07.205Z,3.50
2023-04-18T18:33:33.902Z,3.50
2023-04-18T18:36:00.749Z,3.38
2023-04-18T18:38:27.370Z,3.50
2023-04-18T18:40:54.056Z,3.20
2023-04-18T18:43:20.769Z,3.40
2023-04-18T18:45:47.693Z,3.30
2023-04-18T18:48:15.619Z,3.53
2023-04-18T18:50:42.322Z,3.30
2023-04-18T18:53:09.220Z,3.33
2023-04-18T18:55:35.833Z,3.50
2023-04-18T18:58:02.617Z,3.38
2023-04-18T19:00:29.292Z,3.53
2023-04-18T19:02:56.105Z,3.20
2023-04-18T19:05:22.958Z,3.70
2023-04-18T19:07:51.412Z,3.53
2023-04-18T19:10:18.314Z,3.40
2023-04-18T19:12:44.926Z,3.50
2023-04-18T19:15:12.413Z,3.50
2023-04-18T19:17:39.243Z,3.30
2023-04-18T19:20:06.739Z,3.10
2023-04-18T19:22:33.434Z,3.60
2023-04-18T19:25:00.799Z,3.35
2023-04-18T19:27:27.405Z,3.50
2023-04-18T19:29:54.062Z,3.50
2023-04-18T19:32:21.013Z,2.90
2023-04-18T19:34:47.783Z,3.05
2023-04-18T19:37:14.420Z,3.75
2023-04-18T19:39:41.108Z,3.28
2023-04-18T19:42:08.554Z,3.33
2023-04-18T19:44:35.241Z,3.47
2023-04-18T19:47:01.972Z,3.30
2023-04-18T19:49:28.770Z,3.33
2023-04-18T19:51:55.519Z,3.17
2023-04-18T19:54:22.281Z,3.63
2023-04-18T19:56:48.985Z,3.40
2023-04-18T19:59:16.248Z,3.10
2023-04-18T20:01:43.187Z,3.10
2023-04-18T20:04:10.034Z,3.35
2023-04-18T20:06:36.804Z,3.50
2023-04-18T20:09:04.728Z,3.35
2023-04-18T20:11:31.393Z,3.42
2023-04-18T20:13:58.131Z,3.20
2023-04-18T20:16:24.887Z,3.15
2023-04-18T20:18:54.191Z,3.22
2023-04-18T20:21:21.550Z,3.40
2023-04-18T20:23:48.294Z,3.35
2023-04-18T20:26:14.992Z,3.20
2023-04-18T20:28:41.628Z,3.20
2023-04-18T20:31:08.411Z,3.30
2023-04-18T20:33:36.178Z,3.40
2023-04-18T20:36:03.648Z,3.42
2023-04-18T20:38:30.329Z,3.10
2023-04-18T20:40:58.792Z,3.58
2023-04-18T20:43:25.921Z,3.10
2023-04-18T20:45:53.964Z,3.00
2023-04-18T20:48:21.062Z,3.13
2023-04-18T20:50:51.589Z,3.33
2023-04-18T20:53:20.859Z,3.05
2023-04-18T20:55:48.796Z,3.10
2023-04-18T20:58:18.641Z,3.35
2023-04-18T21:00:45.514Z,3.30
2023-04-18T21:03:16.629Z,3.30
2023-04-18T21:05:44.252Z,3.10
2023-04-18T21:08:11.481Z,3.50
2023-04-18T21:10:38.309Z,3.40
2023-04-18T21:13:04.989Z,3.20
2023-04-18T21:15:31.653Z,3.55
2023-04-18T21:17:58.294Z,3.47
2023-04-18T21:20:24.991Z,3.50
2023-04-18T21:22:51.606Z,3.15
2023-04-18T21:25:20.413Z,3.08
2023-04-18T21:27:47.068Z,3.65
2023-04-18T21:30:13.792Z,3.38
2023-04-18T21:32:40.628Z,3.50
2023-04-18T21:35:07.545Z,3.38
2023-04-18T21:37:34.212Z,3.40
2023-04-18T21:40:01.511Z,3.63
2023-04-18T21:42:28.192Z,3.53
2023-04-18T21:44:54.971Z,3.28
2023-04-18T21:47:22.040Z,3.45
2023-04-18T21:49:49.235Z,3.58
2023-04-18T21:52:15.876Z,3.55
2023-04-18T21:54:42.557Z,3.50
2023-04-18T21:57:09.184Z,3.55
2023-04-18T21:59:35.834Z,3.70
2023-04-18T22:02:05.560Z,3.85
2023-04-18T22:04:32.815Z,3.85
2023-04-18T22:06:59.889Z,3.65
2023-04-18T22:09:26.570Z,3.28
2023-04-18T22:11:56.631Z,3.80
2023-04-18T22:14:24.763Z,3.40
2023-04-18T22:16:51.626Z,3.90
2023-04-18T22:19:19.312Z,3.88
2023-04-18T22:21:46.254Z,3.80
2023-04-18T22:24:13.092Z,3.90
2023-04-18T22:26:40.322Z,3.72
2023-04-18T22:29:07.437Z,3.63
2023-04-18T22:31:34.306Z,3.95
2023-04-18T22:34:01.084Z,3.70
2023-04-18T22:36:27.923Z,3.67
2023-04-18T22:38:54.572Z,3.85
2023-04-18T22:41:21.261Z,3.60
2023-04-18T22:43:48.197Z,3.75
2023-04-18T22:46:14.860Z,3.65
2023-04-18T22:48:41.505Z,3.70
2023-04-18T22:51:08.150Z,4.00
2023-04-18T22:53:34.916Z,3.80
2023-04-18T22:56:01.597Z,4.13
2023-04-18T22:58:28.413Z,3.88
2023-04-18T23:00:55.254Z,3.90
2023-04-18T23:03:22.166Z,3.92
2023-04-18T23:05:49.080Z,4.50
2023-04-18T23:08:15.693Z,4.10
2023-04-18T23:10:42.327Z,3.80
2023-04-18T23:13:09.058Z,4.35
2023-04-18T23:15:35.766Z,4.00
2023-04-18T23:18:02.532Z,4.30
2023-04-18T23:20:29.235Z,4.05
2023-04-18T23:22:56.064Z,4.18
2023-04-18T23:25:22.873Z,4.45
2023-04-18T23:27:49.638Z,4.00
2023-04-18T23:30:16.346Z,4.60
2023-04-18T23:32:43.171Z,3.92
2023-04-18T23:35:10.981Z,4.50
2023-04-18T23:37:37.691Z,4.10
2023-04-18T23:40:06.843Z,4.30
2023-04-18T23:42:37.206Z,4.13
2023-04-18T23:45:05.844Z,4.60
2023-04-18T23:47:32.608Z,4.28
2023-04-18T23:49:59.306Z,4.43
2023-04-18T23:52:25.972Z,4.07
2023-04-18T23:54:52.670Z,4.35
2023-04-18T23:57:19.280Z,4.13
2023-04-18T23:59:46.059Z,4.40
